createdAt,value
2023-03-18T00:04:46.895Z,80.62
2023-03-18T00:09:50.815Z,80.41
2023-03-18T00:14:54.099Z,80.62
2023-03-18T00:20:05.792Z,80.54
2023-03-18T00:25:10.954Z,80.40
2023-03-18T00:30:15.088Z,81.08
2023-03-18T00:35:19.997Z,80.96
2023-03-18T00:40:30.254Z,81.26
2023-03-18T00:45:33.660Z,81.53
2023-03-18T00:50:38.715Z,81.10
2023-03-18T00:55:42.393Z,81.24
2023-03-18T01:00:46.003Z,80.50
2023-03-18T01:05:51.447Z,80.95
2023-03-18T01:10:54.786Z,81.02
2023-03-18T01:15:58.080Z,80.56
2023-03-18T01:21:02.808Z,80.56
2023-03-18T01:26:07.091Z,80.69
2023-03-18T01:31:10.860Z,80.26
2023-03-18T01:36:15.805Z,80.66
2023-03-18T01:41:18.950Z,81.16
2023-03-18T01:46:34.724Z,80.45
2023-03-18T01:51:41.976Z,80.45
2023-03-18T01:56:47.598Z,80.40
2023-03-18T02:01:55.257Z,79.99
2023-03-18T02:07:01.528Z,80.46
2023-03-18T02:12:04.863Z,80.28
2023-03-18T02:17:12.332Z,80.78
2023-03-18T02:22:25.007Z,80.24
2023-03-18T02:27:32.958Z,80.92
2023-03-18T02:32:37.200Z,81.01
2023-03-18T02:37:40.674Z,80.47
2023-03-18T02:42:46.138Z,80.53
2023-03-18T02:47:50.309Z,80.90
2023-03-18T02:52:53.452Z,80.93
2023-03-18T02:57:58.074Z,81.38
2023-03-18T03:03:02.017Z,81.46
2023-03-18T03:08:05.933Z,81.38
2023-03-18T03:13:11.790Z,81.31
2023-03-18T03:18:15.675Z,81.06
2023-03-18T03:23:18.962Z,81.35
2023-03-18T03:28:23.620Z,82.12
2023-03-18T03:33:27.958Z,81.61
2023-03-18T03:38:31.169Z,81.42
2023-03-18T03:43:35.837Z,81.51
2023-03-18T03:48:39.656Z,81.62
2023-03-18T03:53:43.796Z,81.79
2023-03-18T03:58:48.581Z,81.33
2023-03-18T04:03:51.890Z,81.33
2023-03-18T04:08:55.568Z,81.39
2023-03-18T04:14:00.304Z,81.26
2023-03-18T04:19:03.584Z,81.60
2023-03-18T04:24:07.765Z,81.62
2023-03-18T04:29:12.592Z,81.55
2023-03-18T04:34:15.916Z,81.56
2023-03-18T04:39:19.430Z,81.56
2023-03-18T04:44:24.455Z,81.51
2023-03-18T04:49:27.392Z,81.49
2023-03-18T04:54:30.658Z,81.32
2023-03-18T04:59:35.472Z,82.14
2023-03-18T05:04:39.284Z,81.47
2023-03-18T05:09:43.839Z,82.48
2023-03-18T05:14:48.698Z,82.58
2023-03-18T05:19:52.066Z,82.13
2023-03-18T05:24:56.042Z,82.03
2023-03-18T05:30:01.267Z,81.97
2023-03-18T05:35:05.784Z,82.54
2023-03-18T05:40:11.849Z,82.11
2023-03-18T05:45:16.563Z,81.98
2023-03-18T05:50:29.159Z,82.40
2023-03-18T05:55:33.121Z,82.04
2023-03-18T06:00:38.565Z,82.32
2023-03-18T06:05:42.331Z,81.59
2023-03-18T06:10:45.810Z,81.66
2023-03-18T06:15:50.475Z,82.08
2023-03-18T06:20:53.810Z,82.02
2023-03-18T06:25:57.350Z,82.15
2023-03-18T06:31:02.879Z,82.60
2023-03-18T06:36:07.069Z,81.86
2023-03-18T06:41:10.471Z,82.22
2023-03-18T06:46:15.638Z,82.15
2023-03-18T06:51:18.852Z,82.15
2023-03-18T06:56:22.383Z,83.28
2023-03-18T07:01:27.139Z,82.79
2023-03-18T07:06:31.951Z,82.50
2023-03-18T07:11:35.195Z,82.76
2023-03-18T07:16:39.809Z,82.34
2023-03-18T07:21:43.959Z,82.28
2023-03-18T07:26:47.443Z,82.73
2023-03-18T07:31:52.050Z,82.71
2023-03-18T07:36:55.310Z,82.69
2023-03-18T07:41:58.546Z,82.81
2023-03-18T07:47:03.764Z,82.43
2023-03-18T07:52:07.235Z,82.36
2023-03-18T07:57:11.752Z,82.15
2023-03-18T08:02:17.195Z,82.30
2023-03-18T08:07:20.330Z,82.57
2023-03-18T08:12:23.754Z,82.53
2023-03-18T08:17:28.527Z,82.52
2023-03-18T08:22:31.840Z,82.46
2023-03-18T08:27:35.250Z,82.16
2023-03-18T08:32:39.897Z,82.56
2023-03-18T08:37:43.179Z,83.28
2023-03-18T08:42:47.150Z,83.19
2023-03-18T08:47:51.764Z,83.51
2023-03-18T08:52:55.137Z,83.09
2023-03-18T08:57:58.900Z,82.92
2023-03-18T09:03:03.826Z,83.11
2023-03-18T09:08:07.243Z,83.59
2023-03-18T09:13:10.406Z,82.95
2023-03-18T09:18:15.121Z,83.16
2023-03-18T09:23:18.799Z,82.97
2023-03-18T09:28:22.349Z,81.95
2023-03-18T09:33:26.988Z,81.40
2023-03-18T09:38:30.237Z,80.67
2023-03-18T09:43:57.520Z,79.73
2023-03-18T09:49:29.979Z,79.17
2023-03-18T09:54:39.505Z,80.13
2023-03-18T09:59:47.073Z,80.80
2023-03-18T10:04:56.318Z,80.96
2023-03-18T10:10:03.910Z,81.23
2023-03-18T10:15:16.536Z,80.63
2023-03-18T10:20:28.901Z,79.87
2023-03-18T10:25:37.672Z,78.66
2023-03-18T10:30:55.123Z,73.06
2023-03-18T10:36:06.672Z,70.57
2023-03-18T10:41:17.851Z,70.04
2023-03-18T10:46:23.198Z,69.35
2023-03-18T10:51:36.440Z,65.24
2023-03-18T10:56:39.853Z,67.29
2023-03-18T11:01:45.791Z,68.49
2023-03-18T11:06:54.473Z,69.77
2023-03-18T11:12:00.142Z,70.76
2023-03-18T11:17:05.367Z,72.04
2023-03-18T11:22:20.582Z,73.07
2023-03-18T11:27:28.079Z,73.82
2023-03-18T11:32:34.343Z,74.04
2023-03-18T11:37:41.475Z,70.17
2023-03-18T11:42:45.580Z,63.57
2023-03-18T11:47:49.399Z,62.58
2023-03-18T11:53:00.843Z,60.57
2023-03-18T11:58:36.706Z,58.73
2023-03-18T12:03:59.806Z,61.14
2023-03-18T12:09:11.044Z,65.12
2023-03-18T12:14:21.484Z,66.44
2023-03-18T12:19:42.542Z,66.64
2023-03-18T12:25:03.718Z,63.56
2023-03-18T12:30:23.113Z,63.32
2023-03-18T12:35:39.413Z,65.33
2023-03-18T12:41:01.114Z,68.90
2023-03-18T12:46:12.176Z,70.93
2023-03-18T12:51:19.716Z,69.47
2023-03-18T12:56:27.632Z,69.51
2023-03-18T13:01:39.052Z,69.76
2023-03-18T13:06:45.814Z,64.74
2023-03-18T13:12:01.989Z,60.12
2023-03-18T13:17:05.852Z,60.97
2023-03-18T13:22:25.357Z,61.72
2023-03-18T13:27:45.611Z,62.54
2023-03-18T13:33:03.461Z,65.84
2023-03-18T13:38:28.096Z,66.80
2023-03-18T13:43:35.101Z,67.27
2023-03-18T13:48:41.972Z,66.86
2023-03-18T13:53:45.437Z,65.88
2023-03-18T13:58:52.596Z,65.24
2023-03-18T14:03:58.386Z,66.38
2023-03-18T14:09:36.148Z,67.24
2023-03-18T14:15:02.746Z,63.64
2023-03-18T14:20:23.888Z,64.99
2023-03-18T14:25:42.220Z,61.74
2023-03-18T14:30:50.176Z,58.67
2023-03-18T14:35:58.417Z,59.58
2023-03-18T14:41:04.672Z,57.23
2023-03-18T14:46:19.057Z,55.03
2023-03-18T14:51:23.796Z,55.28
2023-03-18T14:56:31.246Z,56.54
2023-03-18T15:01:39.099Z,56.06
2023-03-18T15:06:43.176Z,56.88
2023-03-18T15:11:47.912Z,58.70
2023-03-18T15:16:54.812Z,61.37
2023-03-18T15:22:03.523Z,61.06
2023-03-18T15:27:12.617Z,61.13
2023-03-18T15:32:21.420Z,62.86
2023-03-18T15:37:42.533Z,62.70
2023-03-18T15:42:46.202Z,61.82
2023-03-18T15:47:50.799Z,62.08
2023-03-18T15:53:02.944Z,61.34
2023-03-18T15:58:19.472Z,62.33
2023-03-18T16:03:26.109Z,62.86
2023-03-18T16:08:29.591Z,64.44
2023-03-18T16:13:35.848Z,63.47
2023-03-18T16:18:40.636Z,63.43
2023-03-18T16:23:43.796Z,63.53
2023-03-18T16:28:48.631Z,64.04
2023-03-18T16:33:56.341Z,64.43
2023-03-18T16:38:59.608Z,64.85
2023-03-18T16:44:03.271Z,63.94
2023-03-18T16:49:07.856Z,64.65
2023-03-18T16:54:19.136Z,65.00
2023-03-18T16:59:23.382Z,65.80
2023-03-18T17:04:30.202Z,65.33
2023-03-18T17:09:33.741Z,65.67
2023-03-18T17:14:39.973Z,65.65
2023-03-18T17:19:44.899Z,65.74
2023-03-18T17:24:48.321Z,65.51
2023-03-18T17:29:51.531Z,66.14
2023-03-18T17:34:56.477Z,65.92
2023-03-18T17:39:59.668Z,66.78
2023-03-18T17:45:07.587Z,66.74
2023-03-18T17:50:15.192Z,66.72
2023-03-18T17:55:22.570Z,66.91
2023-03-18T18:00:27.651Z,67.47
2023-03-18T18:05:32.603Z,67.53
2023-03-18T18:10:35.959Z,67.45
2023-03-18T18:15:39.205Z,67.47
2023-03-18T18:20:43.898Z,67.74
2023-03-18T18:25:47.064Z,67.84
2023-03-18T18:30:50.513Z,67.93
2023-03-18T18:35:55.778Z,67.58
2023-03-18T18:41:00.430Z,67.95
2023-03-18T18:46:03.769Z,68.52
2023-03-18T18:51:15.667Z,68.59
2023-03-18T18:56:23.184Z,68.80
2023-03-18T19:01:26.416Z,69.17
2023-03-18T19:06:32.754Z,69.28
2023-03-18T19:11:37.068Z,69.17
2023-03-18T19:16:40.233Z,69.71
2023-03-18T19:21:44.962Z,69.93
2023-03-18T19:26:48.133Z,69.87
2023-03-18T19:31:51.772Z,69.82
2023-03-18T19:36:56.926Z,69.93
2023-03-18T19:42:00.192Z,70.02
2023-03-18T19:47:04.261Z,71.10
2023-03-18T19:52:17.728Z,71.44
2023-03-18T19:57:24.484Z,71.46
2023-03-18T20:02:29.734Z,71.79
2023-03-18T20:07:34.298Z,71.56
2023-03-18T20:12:39.361Z,71.64
2023-03-18T20:17:43.998Z,72.28
2023-03-18T20:22:52.531Z,72.56
2023-03-18T20:27:56.835Z,73.19
2023-03-18T20:33:00.713Z,73.47
2023-03-18T20:38:11.934Z,73.50
2023-03-18T20:43:16.736Z,73.96
2023-03-18T20:48:20.030Z,73.88
2023-03-18T20:53:27.524Z,74.13
2023-03-18T20:58:30.879Z,74.61
2023-03-18T21:03:36.096Z,74.35
2023-03-18T21:08:41.262Z,74.58
2023-03-18T21:13:44.553Z,74.33
2023-03-18T21:18:48.490Z,74.35
2023-03-18T21:23:54.840Z,74.44
2023-03-18T21:28:58.826Z,74.60
2023-03-18T21:34:02.469Z,74.62
2023-03-18T21:39:07.576Z,74.28
2023-03-18T21:44:12.677Z,74.34
2023-03-18T21:49:16.287Z,75.46
2023-03-18T21:54:21.113Z,75.64
2023-03-18T21:59:24.404Z,75.50
2023-03-18T22:04:27.685Z,75.89
2023-03-18T22:09:32.369Z,76.27
2023-03-18T22:14:35.642Z,76.32
2023-03-18T22:19:38.844Z,76.46
2023-03-18T22:24:43.555Z,76.05
2023-03-18T22:29:47.196Z,76.13
2023-03-18T22:34:50.636Z,75.83
2023-03-18T22:39:55.348Z,76.39
2023-03-18T22:44:58.609Z,76.42
2023-03-18T22:50:01.825Z,76.08
2023-03-18T22:55:18.108Z,76.10
2023-03-18T23:00:26.234Z,75.77
2023-03-18T23:05:29.601Z,75.77
2023-03-18T23:10:34.500Z,76.11
2023-03-18T23:15:37.729Z,75.93
2023-03-18T23:20:41.055Z,75.57
2023-03-18T23:25:47.287Z,75.52
2023-03-18T23:30:52.723Z,75.50
2023-03-18T23:35:55.961Z,75.48
2023-03-18T23:41:00.530Z,75.88
2023-03-18T23:46:03.946Z,75.72
2023-03-18T23:51:07.489Z,75.71
2023-03-18T23:56:13.958Z,75.89
